Time;durP1;ratioP1;P1;durP2;ratioP2;P2;SDS_P1;SDS_P2;PMS_P1;PMS_P2;Temp;Humidity;BMP_temperature;BMP_pressure;BME280_temperature;BME280_humidity;BME280_pressure;Samples;Min_cycle;Max_cycle;Signal;HPM_P1;HPM_P2
2023/01/02 00:00:21;;;;;;;3.20;2.33;;;14.20;78.50;;;;;;5071892;28;20086;-86
2023/01/02 00:02:46;;;;;;;2.65;2.17;;;14.20;78.50;;;;;;5055193;28;20028;-86
2023/01/02 00:05:12;;;;;;;3.42;2.10;;;14.20;78.50;;;;;;5072158;28;20028;-86
2023/01/02 00:07:38;;;;;;;2.83;2.13;;;14.20;78.50;;;;;;5088796;28;20028;-86
2023/01/02 00:10:04;;;;;;;3.17;2.15;;;14.20;78.50;;;;;;5071712;28;20025;-87
2023/01/02 00:12:30;;;;;;;2.72;2.00;;;14.20;78.50;;;;;;5071683;28;20112;-85
2023/01/02 00:14:56;;;;;;;3.67;2.20;;;14.20;78.50;;;;;;5038463;28;20104;-85
2023/01/02 00:17:22;;;;;;;3.13;2.10;;;14.20;78.50;;;;;;5055214;28;20120;-87
2023/01/02 00:19:47;;;;;;;2.50;1.90;;;14.20;78.50;;;;;;5088697;28;20025;-86
2023/01/02 00:22:13;;;;;;;2.33;1.85;;;14.20;78.50;;;;;;5071516;28;20033;-87
2023/01/02 00:24:39;;;;;;;2.17;1.95;;;14.20;78.50;;;;;;5071820;28;20446;-87
2023/01/02 00:27:05;;;;;;;2.92;2.15;;;14.20;78.50;;;;;;5055019;28;20123;-87
2023/01/02 00:29:31;;;;;;;2.22;1.88;;;14.20;78.50;;;;;;5071731;28;20055;-87
2023/01/02 00:31:58;;;;;;;2.88;2.03;;;14.20;78.50;;;;;;5056684;28;20121;-88
2023/01/02 00:34:25;;;;;;;2.25;1.95;;;14.20;78.50;;;;;;5070937;28;20037;-87
2023/01/02 00:36:51;;;;;;;3.38;2.05;;;14.20;78.50;;;;;;5054799;28;20128;-87
2023/01/02 00:39:17;;;;;;;3.00;2.03;;;14.20;78.50;;;;;;5054908;28;20123;-87
2023/01/02 00:41:43;;;;;;;3.97;2.45;;;14.20;78.50;;;;;;5071339;28;20120;-87
2023/01/02 00:44:09;;;;;;;2.90;2.10;;;14.20;78.50;;;;;;5054200;28;20021;-87
2023/01/02 00:46:35;;;;;;;2.72;2.25;;;14.20;78.50;;;;;;5054348;28;20021;-85
2023/01/02 00:49:03;;;;;;;2.95;2.15;;;14.30;78.50;;;;;;5038148;28;20036;-87
2023/01/02 00:51:29;;;;;;;2.85;2.00;;;14.20;78.50;;;;;;5071078;28;20074;-87
2023/01/02 00:53:55;;;;;;;3.10;2.28;;;14.20;78.50;;;;;;5037952;28;20071;-86
2023/01/02 00:56:21;;;;;;;3.28;2.08;;;14.20;78.50;;;;;;5055982;28;20049;-88
2023/01/02 00:58:46;;;;;;;2.15;1.95;;;14.20;78.50;;;;;;5038110;28;20600;-87
2023/01/02 01:01:12;;;;;;;3.00;2.10;;;14.20;78.50;;;;;;5071800;28;20131;-87
2023/01/02 01:03:38;;;;;;;3.97;2.30;;;14.20;78.50;;;;;;5070560;28;20119;-87
2023/01/02 01:06:08;;;;;;;2.47;2.05;;;14.20;78.50;;;;;;5070790;28;20074;-87
2023/01/02 01:08:38;;;;;;;3.05;2.30;;;14.20;78.50;;;;;;5055175;28;20037;-87
2023/01/02 01:11:09;;;;;;;3.13;2.10;;;14.20;78.50;;;;;;5069840;28;20074;-87
2023/01/02 01:13:35;;;;;;;2.47;2.10;;;14.20;78.50;;;;;;5054008;28;20043;-87
2023/01/02 01:16:06;;;;;;;2.25;2.00;;;14.20;78.50;;;;;;5054335;28;20032;-87
2023/01/02 01:18:33;;;;;;;2.70;1.95;;;14.20;78.50;;;;;;5054191;28;20067;-86
2023/01/02 01:21:11;;;;;;;4.50;2.28;;;14.20;78.50;;;;;;5037408;28;20094;-86
2023/01/02 01:23:37;;;;;;;3.45;2.30;;;14.20;79.20;;;;;;5054033;28;20025;-87
2023/01/02 01:26:09;;;;;;;2.83;2.20;;;14.20;78.50;;;;;;5053825;28;20092;-87
2023/01/02 01:28:36;;;;;;;3.10;2.30;;;14.20;78.50;;;;;;5053650;28;20068;-87
2023/01/02 01:31:06;;;;;;;2.55;2.20;;;14.20;78.50;;;;;;5070335;28;20036;-86
2023/01/02 01:33:32;;;;;;;4.13;2.38;;;14.20;78.50;;;;;;5037707;28;20040;-87
2023/01/02 01:36:06;;;;;;;2.40;1.90;;;14.20;78.50;;;;;;5036670;28;20021;-89
2023/01/02 01:38:33;;;;;;;3.55;2.10;;;14.20;78.60;;;;;;5056778;28;20029;-88
2023/01/02 01:40:59;;;;;;;3.10;2.08;;;14.20;78.50;;;;;;5038110;28;20029;-87
2023/01/02 01:43:45;;;;;;;3.53;2.45;;;14.20;78.50;;;;;;5038045;28;20040;-87
2023/01/02 01:46:16;;;;;;;;;;;14.20;78.60;;;;;;5055539;28;20446;-86
2023/01/02 01:48:42;;;;;;;1.98;1.70;;;14.20;78.40;;;;;;5053706;28;19908;-88
2023/01/02 01:51:08;;;;;;;2.65;1.90;;;14.20;78.40;;;;;;5036883;28;20210;-87
2023/01/02 01:53:34;;;;;;;3.45;2.33;;;14.20;78.50;;;;;;5037499;28;20607;-87
2023/01/02 01:56:06;;;;;;;2.95;1.98;;;14.20;78.60;;;;;;5069970;28;20143;-85
2023/01/02 01:58:36;;;;;;;3.85;2.33;;;14.20;78.60;;;;;;5070570;28;20033;-86
2023/01/02 02:01:02;;;;;;;2.60;1.90;;;14.20;78.60;;;;;;5070216;28;20466;-87
2023/01/02 02:03:31;;;;;;;3.88;2.22;;;14.20;78.60;;;;;;5086724;28;20044;-86
2023/01/02 02:05:59;;;;;;;3.95;2.08;;;14.20;78.60;;;;;;5070313;28;20036;-86
2023/01/02 02:08:31;;;;;;;2.80;1.95;;;14.20;78.60;;;;;;5053842;28;20032;-85
2023/01/02 02:10:58;;;;;;;2.65;2.00;;;14.20;78.60;;;;;;5053639;28;20036;-87
2023/01/02 02:13:24;;;;;;;2.88;2.20;;;14.20;78.60;;;;;;5036502;28;20029;-86
2023/01/02 02:16:07;;;;;;;2.92;2.10;;;14.20;78.60;;;;;;5053592;28;20057;-86
2023/01/02 02:18:47;;;;;;;3.47;2.08;;;14.20;78.70;;;;;;5053481;28;20029;-85
2023/01/02 02:21:43;;;;;;;2.55;2.15;;;14.20;78.60;;;;;;5053039;28;20029;-86
2023/01/02 02:24:23;;;;;;;3.13;2.20;;;14.30;78.70;;;;;;5057243;28;20373;-87
2023/01/02 02:26:55;;;;;;;3.13;2.20;;;14.20;78.60;;;;;;5057092;28;20025;-87
2023/01/02 02:29:39;;;;;;;3.30;2.42;;;14.20;78.60;;;;;;5090489;28;20040;-87
2023/01/02 02:32:22;;;;;;;4.00;2.30;;;14.20;78.70;;;;;;5056953;28;20059;-86
2023/01/02 02:35:17;;;;;;;2.80;2.00;;;14.20;78.70;;;;;;5057026;28;20302;-87
2023/01/02 02:38:00;;;;;;;2.53;1.77;;;14.20;78.70;;;;;;5057190;28;20032;-85
2023/01/02 02:40:42;;;;;;;2.15;1.80;;;14.20;78.60;;;;;;5057737;28;20118;-85
2023/01/02 02:43:18;;;;;;;2.35;1.83;;;14.20;78.60;;;;;;5056933;28;20029;-85
2023/01/02 02:46:23;;;;;;;2.38;2.00;;;14.20;78.60;;;;;;5056973;28;20040;-85
2023/01/02 02:49:17;;;;;;;3.15;2.08;;;14.20;78.70;;;;;;5057279;28;20029;-86
2023/01/02 02:51:47;;;;;;;2.58;1.92;;;14.20;78.70;;;;;;5056674;28;20036;-85
2023/01/02 02:54:25;;;;;;;3.75;2.20;;;14.20;78.60;;;;;;5056419;28;20037;-86
2023/01/02 02:56:52;;;;;;;2.90;1.98;;;14.30;78.70;;;;;;5056756;28;20136;-87
2023/01/02 02:59:19;;;;;;;3.38;2.10;;;14.20;78.60;;;;;;5057425;28;20380;-86
2023/01/02 03:01:45;;;;;;;2.53;1.83;;;14.30;78.70;;;;;;5056577;28;20036;-85
2023/01/02 03:04:21;;;;;;;3.13;2.15;;;14.30;78.70;;;;;;5039621;28;20132;-86
2023/01/02 03:07:16;;;;;;;3.35;2.20;;;14.30;78.80;;;;;;5073207;28;20120;-85
2023/01/02 03:09:51;;;;;;;3.37;2.23;;;14.30;78.70;;;;;;5056189;28;20040;-85
2023/01/02 03:12:22;;;;;;;3.55;2.00;;;14.30;78.70;;;;;;5056479;28;20040;-86
2023/01/02 03:15:12;;;;;;;2.22;1.85;;;14.30;78.60;;;;;;5056994;28;20374;-87
2023/01/02 03:18:03;;;;;;;2.63;2.10;;;14.30;78.70;;;;;;5056038;28;20363;-86
2023/01/02 03:20:37;;;;;;;2.88;1.92;;;14.30;79.40;;;;;;5055843;28;20029;-84
2023/01/02 03:23:10;;;;;;;3.53;2.10;;;14.30;78.70;;;;;;5056357;28;20072;-85
2023/01/02 03:25:36;;;;;;;2.95;2.00;;;14.30;78.70;;;;;;5055840;28;20025;-87
2023/01/02 03:28:07;;;;;;;2.50;1.77;;;14.30;78.70;;;;;;5056305;28;20036;-86
2023/01/02 03:30:36;;;;;;;2.83;1.77;;;14.30;78.70;;;;;;5056159;28;20074;-86
2023/01/02 03:33:12;;;;;;;2.50;1.85;;;14.30;78.70;;;;;;5055055;28;20024;-86
2023/01/02 03:35:44;;;;;;;2.65;2.10;;;14.30;78.80;;;;;;5055666;28;20065;-87
2023/01/02 03:38:14;;;;;;;3.45;2.10;;;14.40;78.80;;;;;;5056077;28;20074;-86
2023/01/02 03:40:47;;;;;;;2.72;2.00;;;14.30;78.70;;;;;;5056799;28;20037;-86
2023/01/02 03:43:20;;;;;;;3.28;2.13;;;14.30;78.70;;;;;;5055807;28;20068;-87
2023/01/02 03:46:19;;;;;;;3.20;2.00;;;14.40;78.70;;;;;;5072312;28;20036;-87
2023/01/02 03:48:53;;;;;;;2.35;1.98;;;14.40;78.80;;;;;;5055773;28;20033;-88
2023/01/02 03:51:19;;;;;;;2.58;1.77;;;14.40;78.70;;;;;;5055692;28;20495;-87
2023/01/02 03:53:45;;;;;;;2.58;1.83;;;14.40;78.70;;;;;;5039563;28;20029;-86
2023/01/02 03:56:18;;;;;;;2.53;1.90;;;14.40;78.70;;;;;;5056405;28;20045;-87
2023/01/02 03:58:48;;;;;;;2.33;2.10;;;14.30;78.70;;;;;;5056079;28;20473;-87
2023/01/02 04:02:02;;;;;;;2.97;1.85;;;14.40;78.70;;;;;;5056354;28;20060;-87
2023/01/02 04:04:49;;;;;;;3.03;2.13;;;14.40;78.80;;;;;;5054242;28;20036;-87
2023/01/02 04:07:29;;;;;;;2.75;1.92;;;14.40;78.70;;;;;;5037414;28;20036;-87
2023/01/02 04:09:56;;;;;;;2.65;1.77;;;14.40;78.70;;;;;;5032533;28;20086;-89
2023/01/02 04:12:24;;;;;;;2.90;1.88;;;14.40;78.70;;;;;;5072473;28;20021;-87
2023/01/02 04:14:57;;;;;;;2.83;2.10;;;14.40;78.80;;;;;;5055387;28;20033;-87
2023/01/02 04:17:25;;;;;;;2.67;1.77;;;14.40;78.80;;;;;;5056481;28;20116;-87
2023/01/02 04:20:05;;;;;;;2.72;2.00;;;14.40;78.70;;;;;;5055111;28;20490;-87
2023/01/02 04:22:37;;;;;;;3.22;2.00;;;14.40;78.80;;;;;;5054926;28;20166;-87
2023/01/02 04:25:13;;;;;;;2.30;1.98;;;14.40;78.70;;;;;;5071688;28;20033;-87
2023/01/02 04:27:45;;;;;;;2.85;2.00;;;14.40;78.80;;;;;;5054890;28;20033;-87
2023/01/02 04:30:11;;;;;;;3.03;1.88;;;14.40;78.70;;;;;;5054843;28;20035;-87
2023/01/02 04:32:41;;;;;;;2.58;2.15;;;14.40;78.70;;;;;;5054821;28;20025;-88
2023/01/02 04:35:10;;;;;;;2.80;2.05;;;14.40;78.70;;;;;;5054673;28;20029;-86
2023/01/02 04:37:39;;;;;;;2.60;1.65;;;14.50;78.80;;;;;;5071491;28;20071;-87
2023/01/02 04:40:11;;;;;;;3.33;2.20;;;14.40;78.70;;;;;;5055001;28;20370;-87
2023/01/02 04:42:37;;;;;;;2.80;1.88;;;14.40;78.70;;;;;;5054982;28;20033;-86
2023/01/02 04:45:03;;;;;;;3.03;2.20;;;14.50;78.80;;;;;;5054214;28;20086;-88
2023/01/02 04:47:28;;;;;;;2.58;1.80;;;14.50;78.80;;;;;;5087448;28;20021;-87
2023/01/02 04:49:54;;;;;;;1.83;1.70;;;14.50;78.80;;;;;;5037629;28;20040;-87
2023/01/02 04:52:20;;;;;;;3.78;2.10;;;14.50;78.80;;;;;;5054219;28;20025;-87
2023/01/02 04:54:46;;;;;;;3.72;1.92;;;14.50;78.70;;;;;;5053831;28;20060;-88
2023/01/02 04:57:12;;;;;;;2.00;1.80;;;14.50;78.70;;;;;;5071625;28;20037;-87
2023/01/02 04:59:40;;;;;;;2.75;2.03;;;14.50;78.70;;;;;;5054369;28;20383;-86
2023/01/02 05:02:06;;;;;;;4.35;1.90;;;14.50;78.70;;;;;;5088216;28;20021;-87
2023/01/02 05:04:32;;;;;;;2.47;1.90;;;14.50;78.70;;;;;;5038226;28;20040;-87
2023/01/02 05:06:57;;;;;;;2.00;1.80;;;14.50;79.40;;;;;;5038321;28;20025;-86
2023/01/02 05:09:23;;;;;;;2.20;1.80;;;14.50;78.70;;;;;;5070511;28;20025;-87
2023/01/02 05:11:49;;;;;;;2.67;1.75;;;14.50;78.70;;;;;;5037466;28;20029;-87
2023/01/02 05:14:15;;;;;;;2.30;1.85;;;14.60;78.80;;;;;;5053404;28;20033;-87
2023/01/02 05:16:43;;;;;;;2.90;2.00;;;14.50;78.70;;;;;;5054025;28;20021;-88
2023/01/02 05:19:39;;;;;;;;;;;;;;;;;;;;;
2023/01/02 05:25:13;;;;;;;;;;;;;;;;;;;;;
2023/01/02 05:27:39;;;;;;;2.70;1.95;;;14.60;78.80;;;;;;5054575;28;20082;-88
2023/01/02 05:30:11;;;;;;;2.83;1.98;;;14.60;78.70;;;;;;5070930;28;20029;-88
2023/01/02 05:32:56;;;;;;;3.03;2.15;;;14.60;78.70;;;;;;5038228;28;20090;-87
2023/01/02 05:35:34;;;;;;;2.65;1.75;;;14.60;78.70;;;;;;5054848;28;20367;-86
2023/01/02 05:38:10;;;;;;;2.35;1.83;;;14.60;78.70;;;;;;5071018;28;20033;-87
2023/01/02 05:40:38;;;;;;;3.50;1.88;;;14.60;78.70;;;;;;5038896;28;20056;-86
2023/01/02 05:43:04;;;;;;;2.53;1.95;;;14.60;78.80;;;;;;5087491;28;20060;-87
2023/01/02 05:45:32;;;;;;;2.17;1.75;;;14.60;78.80;;;;;;5053584;28;20078;-87
2023/01/02 05:47:58;;;;;;;2.65;1.90;;;14.60;78.80;;;;;;5036835;28;20025;-87
2023/01/02 05:50:25;;;;;;;4.25;2.00;;;14.60;78.70;;;;;;5036878;28;20111;-87
2023/01/02 05:52:50;;;;;;;3.03;1.80;;;14.60;78.70;;;;;;5036707;28;20056;-88
2023/01/02 05:55:16;;;;;;;2.17;1.90;;;14.60;78.80;;;;;;5036983;28;20510;-88
2023/01/02 05:57:42;;;;;;;2.30;1.80;;;14.60;78.70;;;;;;5052908;28;20067;-88
2023/01/02 06:00:08;;;;;;;3.08;1.70;;;14.60;78.80;;;;;;5037271;28;20479;-87
2023/01/02 06:02:39;;;;;;;3.42;2.00;;;14.60;78.70;;;;;;5052900;28;20025;-87
2023/01/02 06:05:05;;;;;;;2.08;1.65;;;14.60;79.40;;;;;;5053054;28;20033;-88
2023/01/02 06:07:31;;;;;;;3.35;2.10;;;14.70;78.80;;;;;;5052946;28;20039;-88
2023/01/02 06:09:57;;;;;;;2.75;2.13;;;14.60;78.70;;;;;;5069996;28;20028;-87
2023/01/02 06:12:22;;;;;;;2.97;2.03;;;14.60;78.80;;;;;;5036546;28;20543;-86
2023/01/02 06:14:48;;;;;;;2.38;1.70;;;14.70;78.80;;;;;;5053100;28;20037;-87
2023/01/02 06:17:14;;;;;;;2.15;1.75;;;14.60;78.80;;;;;;5086649;28;20427;-87
2023/01/02 06:19:40;;;;;;;2.92;1.80;;;14.60;78.80;;;;;;5053825;28;20518;-87
2023/01/02 06:22:05;;;;;;;2.55;1.80;;;14.60;79.40;;;;;;5069645;28;20121;-88
2023/01/02 06:24:31;;;;;;;3.10;2.10;;;14.60;78.80;;;;;;5036036;28;20064;-87
2023/01/02 06:26:57;;;;;;;3.30;2.00;;;14.60;78.80;;;;;;5053208;28;20029;-88
2023/01/02 06:29:23;;;;;;;2.92;1.77;;;14.70;78.80;;;;;;5069564;28;20025;-88
2023/01/02 06:31:49;;;;;;;2.08;1.83;;;14.70;78.90;;;;;;5053907;28;20465;-87
2023/01/02 06:34:16;;;;;;;2.45;2.10;;;14.60;78.80;;;;;;5052912;28;20029;-87
2023/01/02 06:36:42;;;;;;;2.35;1.73;;;14.60;78.80;;;;;;5086493;28;20037;-85
2023/01/02 06:39:08;;;;;;;2.15;1.80;;;14.70;78.90;;;;;;5052782;28;20381;-88
2023/01/02 06:41:33;;;;;;;2.00;1.77;;;14.70;78.80;;;;;;5069630;28;20037;-87
2023/01/02 06:43:59;;;;;;;3.15;1.65;;;14.70;78.80;;;;;;5053886;28;20021;-86
2023/01/02 06:46:25;;;;;;;2.33;1.80;;;14.70;78.80;;;;;;5052885;28;20043;-86
2023/01/02 06:48:51;;;;;;;2.75;2.20;;;14.70;78.80;;;;;;5036166;28;20029;-86
2023/01/02 06:51:19;;;;;;;2.50;1.92;;;14.70;78.80;;;;;;5035996;28;20056;-85
2023/01/02 06:53:45;;;;;;;3.30;1.60;;;14.70;78.80;;;;;;5053082;28;20033;-85
2023/01/02 06:56:14;;;;;;;2.75;1.98;;;14.70;78.80;;;;;;5052112;28;20056;-87
2023/01/02 06:58:40;;;;;;;2.78;2.00;;;14.70;78.70;;;;;;5069038;28;20032;-86
2023/01/02 07:01:12;;;;;;;1.98;1.63;;;14.70;78.80;;;;;;5053157;28;20444;-86
2023/01/02 07:03:38;;;;;;;2.25;1.80;;;14.70;78.80;;;;;;5086745;28;20032;-86
2023/01/02 07:06:07;;;;;;;3.15;1.67;;;14.70;78.70;;;;;;5052643;28;20025;-86
2023/01/02 07:08:33;;;;;;;2.72;1.70;;;14.70;78.80;;;;;;5054760;28;20032;-86
2023/01/02 07:11:16;;;;;;;1.92;1.48;;;14.70;78.80;;;;;;5072623;28;20033;-86
2023/01/02 07:13:45;;;;;;;1.45;1.35;;;14.70;78.80;;;;;;5040754;28;20041;-86
2023/01/02 07:16:13;;;;;;;1.48;1.38;;;14.70;78.80;;;;;;5055944;28;20048;-87
2023/01/02 07:18:39;;;;;;;1.40;1.30;;;14.70;78.80;;;;;;5073281;28;20025;-87
2023/01/02 07:21:06;;;;;;;1.50;1.40;;;14.70;78.90;;;;;;5072529;28;20472;-87
2023/01/02 07:23:32;;;;;;;1.55;1.45;;;14.70;78.80;;;;;;5055827;28;20085;-87
2023/01/02 07:26:00;;;;;;;1.60;1.50;;;14.70;78.80;;;;;;5072318;28;20025;-86
2023/01/02 07:28:27;;;;;;;1.30;1.20;;;14.70;78.90;;;;;;5055807;28;20033;-87
2023/01/02 07:30:58;;;;;;;1.40;1.30;;;14.70;78.80;;;;;;5038954;28;20021;-86
2023/01/02 07:33:24;;;;;;;1.20;1.10;;;14.70;78.90;;;;;;5089208;28;20029;-88
2023/01/02 07:35:50;;;;;;;1.30;1.20;;;14.70;78.90;;;;;;5055946;28;20055;-87
2023/01/02 07:38:16;;;;;;;1.30;1.20;;;14.60;78.80;;;;;;5055728;28;20029;-86
2023/01/02 07:40:42;;;;;;;1.88;1.30;;;14.60;78.80;;;;;;5056269;28;20464;-85
2023/01/02 07:43:08;;;;;;;1.33;1.23;;;14.60;78.80;;;;;;5055175;28;20029;-86
2023/01/02 07:45:33;;;;;;;1.40;1.30;;;14.60;78.80;;;;;;5055374;28;20478;-85
2023/01/02 07:48:00;;;;;;;1.30;1.20;;;14.60;78.80;;;;;;5072127;28;20557;-86
2023/01/02 07:50:26;;;;;;;1.40;1.30;;;14.60;78.80;;;;;;5054876;28;20129;-87
2023/01/02 07:52:52;;;;;;;1.33;1.23;;;14.60;78.80;;;;;;5038843;28;20033;-87
2023/01/02 07:55:18;;;;;;;3.08;1.40;;;14.50;78.80;;;;;;5055074;28;20109;-86
2023/01/02 07:57:47;;;;;;;1.50;1.40;;;14.50;78.80;;;;;;5055240;28;20123;-87
2023/01/02 08:00:14;;;;;;;1.50;1.40;;;14.50;78.80;;;;;;5055214;28;20056;-86
2023/01/02 08:02:40;;;;;;;1.50;1.40;;;14.50;78.80;;;;;;5038620;28;20029;-86
2023/01/02 08:05:06;;;;;;;2.05;1.60;;;14.50;78.80;;;;;;5038521;28;20040;-89
2023/01/02 08:07:32;;;;;;;1.48;1.38;;;14.50;78.90;;;;;;5072725;28;20061;-89
2023/01/02 08:09:58;;;;;;;1.52;1.42;;;14.50;78.90;;;;;;5055256;28;20086;-89
2023/01/02 08:12:23;;;;;;;1.55;1.40;;;14.40;78.80;;;;;;5055382;28;20037;-89
2023/01/02 08:14:49;;;;;;;1.63;1.48;;;14.40;79.50;;;;;;5055201;28;20431;-87
2023/01/02 08:17:16;;;;;;;1.70;1.60;;;14.40;78.80;;;;;;5055798;28;20466;-86
2023/01/02 08:19:42;;;;;;;1.85;1.65;;;14.40;78.80;;;;;;5071120;28;20032;-89
2023/01/02 08:22:08;;;;;;;1.60;1.48;;;14.40;78.90;;;;;;5055861;28;20033;-89
2023/01/02 08:24:34;;;;;;;1.67;1.58;;;14.40;78.90;;;;;;5071832;28;20440;-89
2023/01/02 08:27:00;;;;;;;1.85;1.58;;;14.40;78.90;;;;;;5056288;28;20111;-87
2023/01/02 08:29:25;;;;;;;2.05;1.80;;;14.40;78.90;;;;;;5038212;28;20029;-92
2023/01/02 08:31:51;;;;;;;2.22;2.00;;;14.30;78.90;;;;;;5055051;28;20037;-88
2023/01/02 08:34:17;;;;;;;2.05;1.80;;;14.30;78.90;;;;;;5038170;28;20049;-88
2023/01/02 08:36:43;;;;;;;2.60;2.17;;;14.30;78.90;;;;;;5038381;28;20036;-87
2023/01/02 08:39:09;;;;;;;3.05;2.00;;;14.30;78.90;;;;;;5054968;28;20058;-87
2023/01/02 08:41:38;;;;;;;3.28;2.40;;;14.30;78.90;;;;;;5072015;28;20128;-87
2023/01/02 08:44:04;;;;;;;3.00;2.40;;;14.30;78.90;;;;;;5055789;28;20078;-88
2023/01/02 08:46:32;;;;;;;2.80;2.22;;;14.20;78.90;;;;;;5038514;28;20118;-87
2023/01/02 08:48:58;;;;;;;2.75;2.25;;;14.20;78.90;;;;;;5021723;28;20033;-88
2023/01/02 08:51:24;;;;;;;2.83;2.20;;;14.20;78.90;;;;;;5071075;28;20057;-89
2023/01/02 08:53:50;;;;;;;3.28;2.70;;;14.20;78.90;;;;;;5054437;28;20115;-86
2023/01/02 08:56:19;;;;;;;3.22;2.47;;;14.20;78.90;;;;;;5055242;28;20205;-88
2023/01/02 08:58:49;;;;;;;3.60;2.88;;;14.20;78.90;;;;;;5056576;28;20040;-86
2023/01/02 09:01:15;;;;;;;3.28;2.70;;;14.20;79.00;;;;;;5055520;28;20033;-87
2023/01/02 09:03:40;;;;;;;4.00;3.42;;;14.20;79.00;;;;;;5071831;28;20032;-88
2023/01/02 09:06:06;;;;;;;4.25;3.30;;;14.10;78.90;;;;;;5022065;28;20454;-88
2023/01/02 09:08:32;;;;;;;5.22;3.10;;;14.10;78.90;;;;;;5087606;28;20457;-84
2023/01/02 09:10:58;;;;;;;4.25;3.35;;;14.10;78.90;;;;;;5037019;28;20025;-84
2023/01/02 09:13:23;;;;;;;3.97;2.97;;;14.10;79.00;;;;;;5053613;28;20421;-85
2023/01/02 09:15:49;;;;;;;3.47;2.80;;;14.10;79.00;;;;;;5053651;28;20052;-84
2023/01/02 09:18:15;;;;;;;3.70;2.90;;;14.10;79.00;;;;;;5070440;28;20050;-87
2023/01/02 09:20:41;;;;;;;3.83;3.03;;;14.10;79.00;;;;;;5087341;28;20064;-86
2023/01/02 09:23:06;;;;;;;3.78;3.15;;;14.10;79.00;;;;;;5037352;28;20053;-87
2023/01/02 09:25:32;;;;;;;3.78;3.00;;;14.10;79.00;;;;;;5054079;28;20116;-87
2023/01/02 09:27:58;;;;;;;4.35;2.92;;;14.00;78.90;;;;;;5037101;28;20040;-88
2023/01/02 09:30:24;;;;;;;3.92;3.20;;;14.00;79.00;;;;;;5053354;28;20044;-85
2023/01/02 09:32:50;;;;;;;4.05;3.10;;;14.10;79.00;;;;;;5053501;28;20079;-86
2023/01/02 09:35:16;;;;;;;3.40;2.80;;;14.00;79.00;;;;;;5071081;28;20063;-86
2023/01/02 09:37:42;;;;;;;3.38;2.83;;;14.00;79.00;;;;;;5070498;28;20033;-88
2023/01/02 09:40:10;;;;;;;4.40;3.33;;;14.00;79.00;;;;;;5070463;28;20033;-87
2023/01/02 09:42:36;;;;;;;3.90;3.08;;;14.00;79.00;;;;;;5037489;28;20120;-88
2023/01/02 09:45:04;;;;;;;3.78;3.00;;;14.00;79.00;;;;;;5020609;28;20075;-88
2023/01/02 09:47:31;;;;;;;4.03;3.03;;;14.00;79.00;;;;;;5054390;28;20450;-88
2023/01/02 09:50:04;;;;;;;4.03;3.13;;;13.90;79.00;;;;;;5053418;28;20070;-86
2023/01/02 09:52:43;;;;;;;3.58;2.95;;;13.90;79.00;;;;;;5053086;28;20033;-87
2023/01/02 09:55:17;;;;;;;3.50;2.83;;;13.90;79.00;;;;;;5052602;28;20064;-86
2023/01/02 09:57:58;;;;;;;3.63;2.83;;;13.90;79.70;;;;;;5053621;28;20060;-86
2023/01/02 10:00:26;;;;;;;3.40;2.85;;;13.90;79.00;;;;;;5069600;28;20028;-84
2023/01/02 10:03:04;;;;;;;3.55;2.78;;;13.90;79.00;;;;;;5052569;28;20044;-88
2023/01/02 10:06:05;;;;;;;2.90;2.60;;;13.90;79.00;;;;;;5053104;28;20033;-85
2023/01/02 10:08:45;;;;;;;3.15;2.50;;;13.90;79.10;;;;;;5053545;28;20119;-88
2023/01/02 10:11:25;;;;;;;2.47;2.08;;;13.80;79.00;;;;;;5053589;28;20033;-89
2023/01/02 10:14:20;;;;;;;2.13;1.77;;;13.80;78.90;;;;;;5052941;28;20037;-88
2023/01/02 10:16:49;;;;;;;2.30;1.83;;;13.80;78.90;;;;;;5052664;28;20036;-86
2023/01/02 10:19:39;;;;;;;2.83;1.73;;;13.80;78.80;;;;;;5053292;28;20115;-87
2023/01/02 10:22:10;;;;;;;3.00;1.73;;;13.80;78.80;;;;;;5052325;28;20029;-89
2023/01/02 10:24:47;;;;;;;2.17;1.60;;;13.70;78.70;;;;;;5054397;28;20082;-87
2023/01/02 10:27:24;;;;;;;1.90;1.50;;;13.70;78.70;;;;;;5086666;28;20454;-88
2023/01/02 10:29:57;;;;;;;1.63;1.50;;;13.80;78.70;;;;;;5052665;28;20087;-89
2023/01/02 10:32:25;;;;;;;1.70;1.55;;;13.70;78.60;;;;;;5053708;28;20043;-87
2023/01/02 10:35:13;;;;;;;1.95;1.40;;;13.70;78.60;;;;;;5036838;28;20029;-88
2023/01/02 10:37:39;;;;;;;1.80;1.50;;;13.70;78.60;;;;;;5053115;28;20040;-89
2023/01/02 10:40:05;;;;;;;1.73;1.48;;;13.80;78.70;;;;;;5087045;28;20112;-89
2023/01/02 10:42:32;;;;;;;1.90;1.58;;;13.70;78.60;;;;;;5087428;28;20033;-89
2023/01/02 10:44:59;;;;;;;3.30;1.80;;;13.70;78.60;;;;;;5041001;28;20108;-90
2023/01/02 10:47:38;;;;;;;1.95;1.58;;;13.70;78.60;;;;;;5057256;28;20124;-89
2023/01/02 10:50:09;;;;;;;2.53;1.50;;;13.70;78.70;;;;;;5056993;28;20539;-89
2023/01/02 10:52:51;;;;;;;2.47;1.50;;;13.70;78.60;;;;;;5059164;28;20033;-89
2023/01/02 10:55:37;;;;;;;1.70;1.38;;;13.70;78.70;;;;;;5072784;28;20055;-87
2023/01/02 10:58:06;;;;;;;1.70;1.60;;;13.70;78.70;;;;;;5064483;28;20484;-90
2023/01/02 11:00:34;;;;;;;1.65;1.40;;;13.70;78.70;;;;;;5056459;28;20039;-88
2023/01/02 11:03:22;;;;;;;1.65;1.45;;;13.70;78.70;;;;;;5073804;28;20021;-88
2023/01/02 11:05:54;;;;;;;2.35;1.40;;;13.70;78.80;;;;;;5056100;28;20047;-88
2023/01/02 11:08:22;;;;;;;1.50;1.30;;;13.60;78.70;;;;;;5056345;28;20047;-88
2023/01/02 11:10:49;;;;;;;2.10;1.70;;;13.70;78.80;;;;;;5056373;28;20441;-88
2023/01/02 11:13:18;;;;;;;2.33;1.60;;;13.70;78.80;;;;;;5023623;28;20032;-87
2023/01/02 11:15:49;;;;;;;1.77;1.42;;;13.60;78.80;;;;;;5056327;28;20531;-88
2023/01/02 11:18:30;;;;;;;2.60;1.85;;;13.60;78.80;;;;;;5056534;28;20053;-86
2023/01/02 11:21:03;;;;;;;1.77;1.40;;;13.60;78.80;;;;;;5056286;28;20492;-88
2023/01/02 11:23:35;;;;;;;1.52;1.42;;;13.60;78.80;;;;;;5056868;28;20374;-89
2023/01/02 11:26:02;;;;;;;1.65;1.45;;;13.60;78.80;;;;;;5056307;28;20040;-88
2023/01/02 11:28:33;;;;;;;2.35;1.77;;;13.60;78.80;;;;;;5056037;28;20032;-87
2023/01/02 11:31:02;;;;;;;1.92;1.50;;;13.60;78.80;;;;;;5056341;28;20052;-89
2023/01/02 11:33:29;;;;;;;1.60;1.50;;;13.60;78.90;;;;;;5056103;28;20108;-89
2023/01/02 11:36:04;;;;;;;2.17;1.60;;;13.60;78.90;;;;;;5055959;28;20168;-87
2023/01/02 11:38:41;;;;;;;;;;;13.60;78.90;;;;;;5056672;28;20036;-88
2023/01/02 11:44:49;;;;;;;1.50;1.40;;;13.60;78.80;;;;;;5056505;28;20458;-88
2023/01/02 11:47:19;;;;;;;1.55;1.45;;;13.60;78.90;;;;;;5056024;28;20021;-88
2023/01/02 11:49:48;;;;;;;1.73;1.48;;;13.60;78.90;;;;;;5055964;28;20113;-89
2023/01/02 11:52:25;;;;;;;1.30;1.20;;;13.60;79.00;;;;;;5072415;28;20075;-87
2023/01/02 11:55:09;;;;;;;1.63;1.52;;;13.60;79.10;;;;;;5054509;28;20053;-89
2023/01/02 11:58:00;;;;;;;1.90;1.33;;;13.60;79.10;;;;;;5056165;28;20037;-91
2023/01/02 12:00:31;;;;;;;1.40;1.30;;;13.60;79.10;;;;;;5060466;28;20370;-87
2023/01/02 12:03:05;;;;;;;1.65;1.48;;;13.60;79.10;;;;;;5077644;28;20473;-90
2023/01/02 12:05:54;;;;;;;1.98;1.45;;;13.60;79.10;;;;;;5074224;28;20037;-88
2023/01/02 12:08:49;;;;;;;2.45;1.70;;;13.60;79.10;;;;;;5055527;28;20025;-89
2023/01/02 12:11:40;;;;;;;2.08;1.63;;;13.60;79.10;;;;;;5056873;28;20032;-88
2023/01/02 12:14:22;;;;;;;3.20;2.00;;;13.60;79.00;;;;;;5055295;28;20048;-90
2023/01/02 12:17:21;;;;;;;1.70;1.58;;;13.60;79.00;;;;;;5055133;28;20036;-91
2023/01/02 12:20:13;;;;;;;5.07;1.88;;;13.60;79.00;;;;;;5055314;28;20029;-93
2023/01/02 12:23:08;;;;;;;2.53;1.88;;;13.60;79.00;;;;;;5055096;28;20029;-90
2023/01/02 12:25:40;;;;;;;2.33;1.75;;;13.60;79.00;;;;;;5056477;28;20033;-90
2023/01/02 12:28:28;;;;;;;1.92;1.60;;;13.60;79.00;;;;;;5054920;28;20029;-90
2023/01/02 12:31:12;;;;;;;2.10;1.90;;;13.60;79.00;;;;;;5054961;28;20033;-89
2023/01/02 12:34:06;;;;;;;3.37;1.90;;;13.60;79.00;;;;;;5054982;28;20040;-90
2023/01/02 12:37:05;;;;;;;2.20;1.70;;;13.60;78.90;;;;;;5055176;28;20087;-90
2023/01/02 12:39:37;;;;;;;2.13;1.67;;;13.60;78.90;;;;;;5054993;28;20058;-90
2023/01/02 12:42:16;;;;;;;2.65;1.80;;;13.60;78.90;;;;;;5054789;28;20103;-86
2023/01/02 12:44:53;;;;;;;2.08;1.88;;;13.50;78.90;;;;;;5054782;28;20036;-88
2023/01/02 12:47:54;;;;;;;1.73;1.60;;;13.60;79.00;;;;;;5054821;28;20035;-89
2023/01/02 12:50:42;;;;;;;2.33;1.73;;;13.60;78.90;;;;;;5054971;28;20486;-89
2023/01/02 12:53:34;;;;;;;2.28;1.80;;;13.60;78.90;;;;;;5072802;28;20028;-89
2023/01/02 12:56:09;;;;;;;3.67;2.05;;;13.60;78.90;;;;;;5054553;28;20055;-89
2023/01/02 12:58:38;;;;;;;1.95;1.58;;;13.60;78.90;;;;;;5054638;28;20040;-88
2023/01/02 13:01:27;;;;;;;2.05;1.70;;;13.60;78.90;;;;;;5054125;28;20024;-89
2023/01/02 13:03:59;;;;;;;2.03;1.63;;;13.60;78.90;;;;;;5053965;28;20036;-90
2023/01/02 13:06:56;;;;;;;1.70;1.60;;;13.60;78.80;;;;;;5054132;28;20032;-89
2023/01/02 13:09:41;;;;;;;1.80;1.70;;;13.60;78.90;;;;;;5054245;28;20040;-89
2023/01/02 13:12:19;;;;;;;2.47;2.10;;;13.60;78.90;;;;;;5054288;28;20064;-90
2023/01/02 13:14:52;;;;;;;2.10;1.80;;;13.60;78.90;;;;;;5053231;28;20032;-89
2023/01/02 13:17:49;;;;;;;2.63;1.83;;;13.60;78.80;;;;;;5054447;28;20037;-89
2023/01/02 13:20:33;;;;;;;2.70;1.77;;;13.60;78.90;;;;;;5054549;28;20063;-89